createdAt,value
2018-10-17T00:01:22.267Z,74.60
2018-10-17T00:03:49.874Z,74.70
2018-10-17T00:06:17.428Z,74.80
2018-10-17T00:08:45.021Z,74.50
2018-10-17T00:11:12.645Z,74.40
2018-10-17T00:13:40.311Z,74.60
2018-10-17T00:16:08.914Z,74.50
2018-10-17T00:18:36.514Z,74.70
2018-10-17T00:21:04.514Z,74.70
2018-10-17T00:23:32.515Z,74.30
2018-10-17T00:26:00.092Z,74.40
2018-10-17T00:28:27.732Z,74.30
2018-10-17T00:30:55.371Z,74.10
2018-10-17T00:33:23.436Z,74.30
2018-10-17T00:35:51.013Z,74.20
2018-10-17T00:38:18.591Z,74.50
2018-10-17T00:40:46.171Z,74.80
2018-10-17T00:43:13.863Z,75.10
2018-10-17T00:45:41.430Z,75.30
2018-10-17T00:48:09.056Z,75.40
2018-10-17T00:50:36.654Z,75.40
2018-10-17T00:53:04.396Z,75.40
2018-10-17T00:55:32.077Z,75.20
2018-10-17T00:57:59.730Z,75.00
2018-10-17T01:00:27.414Z,75.00
2018-10-17T01:02:55.075Z,75.00
2018-10-17T01:05:22.651Z,74.90
2018-10-17T01:07:50.175Z,74.80
2018-10-17T01:10:17.753Z,74.80
2018-10-17T01:12:45.302Z,75.10
2018-10-17T01:15:13.753Z,75.20
2018-10-17T01:17:41.586Z,75.10
2018-10-17T01:20:09.478Z,75.20
2018-10-17T01:22:37.047Z,75.20
2018-10-17T01:25:05.164Z,75.40
2018-10-17T01:27:32.909Z,75.70
2018-10-17T01:30:00.526Z,75.70
2018-10-17T01:32:28.177Z,75.70
2018-10-17T01:34:55.878Z,75.50
2018-10-17T01:37:24.157Z,75.40
2018-10-17T01:39:51.829Z,75.30
2018-10-17T01:42:19.479Z,75.40
2018-10-17T01:44:47.112Z,75.70
2018-10-17T01:47:14.698Z,75.80
2018-10-17T01:49:42.351Z,76.30
2018-10-17T01:52:10.134Z,75.80
2018-10-17T01:54:37.786Z,75.80
2018-10-17T01:57:05.484Z,76.00
2018-10-17T01:59:33.180Z,76.30
2018-10-17T02:02:00.786Z,75.90
2018-10-17T02:04:28.407Z,75.50
2018-10-17T02:06:56.198Z,75.20
2018-10-17T02:09:23.847Z,75.30
2018-10-17T02:11:51.552Z,75.50
2018-10-17T02:14:19.824Z,75.50
2018-10-17T02:16:47.462Z,75.60
2018-10-17T02:19:15.210Z,75.30
2018-10-17T02:21:42.828Z,75.30
2018-10-17T02:24:10.411Z,75.20
2018-10-17T02:26:37.989Z,75.30
2018-10-17T02:29:05.809Z,75.20
2018-10-17T02:31:33.319Z,75.00
2018-10-17T02:34:00.809Z,74.90
2018-10-17T02:36:28.564Z,75.00
2018-10-17T02:38:56.105Z,75.10
2018-10-17T02:41:23.686Z,75.50
2018-10-17T02:43:51.290Z,75.80
2018-10-17T02:46:18.900Z,76.20
2018-10-17T02:48:46.522Z,76.30
2018-10-17T02:51:14.135Z,76.40
2018-10-17T02:53:41.768Z,76.40
2018-10-17T02:56:09.394Z,76.50
2018-10-17T02:58:36.996Z,76.50
2018-10-17T03:01:04.786Z,76.30
2018-10-17T03:03:32.403Z,76.30
2018-10-17T03:05:59.931Z,76.40
2018-10-17T03:08:27.615Z,76.40
2018-10-17T03:10:55.418Z,76.50
2018-10-17T03:13:23.619Z,76.70
2018-10-17T03:15:51.249Z,77.00
2018-10-17T03:18:18.805Z,76.80
2018-10-17T03:20:46.444Z,76.80
2018-10-17T03:23:14.096Z,76.50
2018-10-17T03:25:41.586Z,76.40
2018-10-17T03:28:09.231Z,76.40
2018-10-17T03:30:36.826Z,76.20
2018-10-17T03:33:04.584Z,77.00
2018-10-17T03:35:32.221Z,76.00
2018-10-17T03:37:59.860Z,75.60
2018-10-17T03:40:27.551Z,75.60
2018-10-17T03:42:56.027Z,75.80
2018-10-17T03:45:23.662Z,76.00
2018-10-17T03:47:51.168Z,76.00
2018-10-17T03:50:18.897Z,76.20
2018-10-17T03:52:46.540Z,76.10
2018-10-17T03:55:14.393Z,76.10
2018-10-17T03:57:41.923Z,76.20
2018-10-17T04:00:10.315Z,76.00
2018-10-17T04:02:38.015Z,76.10
2018-10-17T04:05:06.327Z,76.20
2018-10-17T04:07:34.075Z,76.00
2018-10-17T04:10:01.907Z,75.40
2018-10-17T04:12:30.843Z,75.50
2018-10-17T04:14:59.426Z,75.40
2018-10-17T04:17:27.573Z,76.00
2018-10-17T04:19:55.068Z,76.20
2018-10-17T04:22:22.740Z,76.40
2018-10-17T04:24:50.263Z,76.00
2018-10-17T04:27:17.892Z,76.00
2018-10-17T04:29:45.497Z,76.10
2018-10-17T04:32:13.106Z,76.10
2018-10-17T04:34:40.615Z,76.10
2018-10-17T04:37:08.377Z,75.90
2018-10-17T04:39:35.928Z,75.90
2018-10-17T04:42:03.722Z,76.00
2018-10-17T04:44:32.000Z,76.60
2018-10-17T04:46:59.608Z,76.60
2018-10-17T04:49:27.053Z,76.70
2018-10-17T04:51:54.620Z,77.00
2018-10-17T04:54:22.212Z,77.10
2018-10-17T04:56:49.830Z,77.10
2018-10-17T04:59:17.468Z,77.20
2018-10-17T05:01:44.959Z,77.10
2018-10-17T05:04:12.556Z,77.10
2018-10-17T05:06:40.159Z,77.40
2018-10-17T05:09:08.606Z,77.50
2018-10-17T05:11:36.113Z,77.50
2018-10-17T05:14:04.290Z,77.80
2018-10-17T05:16:31.890Z,78.00
2018-10-17T05:18:59.540Z,77.90
2018-10-17T05:21:27.379Z,77.80
2018-10-17T05:23:55.048Z,77.70
2018-10-17T05:26:22.694Z,77.50
2018-10-17T05:28:50.249Z,77.70
2018-10-17T05:31:17.835Z,77.40
2018-10-17T05:33:45.426Z,77.60
2018-10-17T05:36:13.031Z,77.70
2018-10-17T05:38:40.660Z,77.80
2018-10-17T05:41:08.397Z,77.60
2018-10-17T05:43:36.890Z,77.30
2018-10-17T05:46:04.448Z,76.90
2018-10-17T05:48:31.982Z,76.70
2018-10-17T05:51:00.036Z,76.80
2018-10-17T05:53:27.575Z,76.50
2018-10-17T05:55:55.279Z,76.30
2018-10-17T05:58:22.955Z,76.40
2018-10-17T06:00:50.522Z,76.40
2018-10-17T06:03:18.077Z,76.50
2018-10-17T06:05:45.632Z,76.50
2018-10-17T06:08:13.234Z,77.30
2018-10-17T06:10:40.768Z,76.30
2018-10-17T06:13:08.385Z,76.20
2018-10-17T06:15:35.962Z,76.10
2018-10-17T06:18:03.651Z,76.10
2018-10-17T06:20:31.329Z,76.40
2018-10-17T06:22:58.970Z,76.40
2018-10-17T06:25:26.549Z,76.10
2018-10-17T06:27:54.801Z,76.50
2018-10-17T06:30:25.320Z,76.40
2018-10-17T06:32:55.996Z,76.70
2018-10-17T06:35:26.082Z,77.10
2018-10-17T06:37:54.389Z,77.40
2018-10-17T06:40:30.862Z,77.40
2018-10-17T06:43:01.598Z,77.70
2018-10-17T06:45:34.175Z,77.50
2018-10-17T06:48:01.875Z,77.70
2018-10-17T06:50:29.819Z,77.60
2018-10-17T06:55:53.586Z,77.10
2018-10-17T06:58:28.509Z,77.50
2018-10-17T07:00:56.457Z,77.90
2018-10-17T07:03:27.623Z,78.30
2018-10-17T07:05:59.707Z,79.90
2018-10-17T07:08:30.819Z,79.10
2018-10-17T07:10:59.552Z,79.20
2018-10-17T07:13:45.056Z,79.30
2018-10-17T07:16:21.980Z,79.40
2018-10-17T07:19:03.632Z,79.30
2018-10-17T07:21:37.060Z,78.90
2018-10-17T07:24:10.632Z,79.00
2018-10-17T07:26:49.017Z,79.10
2018-10-17T07:29:19.496Z,79.10
2018-10-17T07:31:53.916Z,79.00
2018-10-17T07:37:15.488Z,79.40
2018-10-17T07:42:35.130Z,79.40
2018-10-17T07:45:12.925Z,79.00
2018-10-17T07:47:42.805Z,79.60
2018-10-17T07:50:24.823Z,78.90
2018-10-17T07:53:00.043Z,79.30
2018-10-17T07:55:36.768Z,78.50
2018-10-17T07:58:10.556Z,79.10
2018-10-17T08:00:41.855Z,78.20
2018-10-17T08:03:13.352Z,78.10
2018-10-17T08:05:54.210Z,79.10
2018-10-17T08:08:28.743Z,78.60
2018-10-17T08:11:11.290Z,79.00
2018-10-17T08:13:45.808Z,78.50
2018-10-17T08:16:15.341Z,78.30
2018-10-17T08:18:46.402Z,79.40
2018-10-17T08:21:18.683Z,78.60
2018-10-17T08:23:55.704Z,79.30
2018-10-17T08:26:28.733Z,79.50
2018-10-17T08:28:58.961Z,78.80
2018-10-17T08:31:29.036Z,78.10
2018-10-17T08:34:03.579Z,79.20
2018-10-17T08:36:35.589Z,79.20
2018-10-17T08:39:11.108Z,79.60
2018-10-17T08:41:42.155Z,79.00
2018-10-17T08:44:17.168Z,79.40
2018-10-17T08:46:45.927Z,79.20
2018-10-17T08:49:22.180Z,77.90
2018-10-17T08:51:51.579Z,79.00
2018-10-17T08:54:25.168Z,79.30
2018-10-17T08:56:55.301Z,78.40
2018-10-17T08:59:24.584Z,76.70
2018-10-17T09:01:58.428Z,76.20
2018-10-17T09:04:27.306Z,76.60
2018-10-17T09:06:59.933Z,76.20
2018-10-17T09:12:29.200Z,76.10
2018-10-17T09:15:01.804Z,76.20
2018-10-17T09:17:41.418Z,76.10
2018-10-17T09:20:10.563Z,76.00
2018-10-17T09:22:40.612Z,76.10
2018-10-17T09:25:12.511Z,76.00
2018-10-17T09:27:44.740Z,76.00
2018-10-17T09:30:14.157Z,75.70
2018-10-17T09:32:47.543Z,75.40
2018-10-17T09:35:16.520Z,75.00
2018-10-17T09:37:46.004Z,74.60
2018-10-17T09:40:14.806Z,73.70
2018-10-17T09:42:43.155Z,74.20
2018-10-17T09:45:16.699Z,73.70
2018-10-17T09:47:46.469Z,73.70
2018-10-17T09:50:21.159Z,73.00
2018-10-17T09:52:50.291Z,72.90
2018-10-17T09:55:24.323Z,72.90
2018-10-17T09:57:59.388Z,72.30
2018-10-17T10:00:34.754Z,72.20
2018-10-17T10:03:04.114Z,72.10
2018-10-17T10:05:45.135Z,71.80
2018-10-17T10:08:15.639Z,71.30
2018-10-17T10:10:47.236Z,71.10
2018-10-17T10:13:17.620Z,70.90
2018-10-17T10:15:56.291Z,70.60
2018-10-17T10:18:35.593Z,70.30
2018-10-17T10:21:06.533Z,69.90
2018-10-17T10:23:36.827Z,69.60
2018-10-17T10:26:28.802Z,69.00
2018-10-17T10:28:58.507Z,69.00
2018-10-17T10:31:26.492Z,69.20
2018-10-17T10:33:59.137Z,69.10
2018-10-17T10:36:29.569Z,68.80
2018-10-17T10:38:58.836Z,69.10
2018-10-17T10:41:26.651Z,68.80
2018-10-17T10:44:04.935Z,68.40
2018-10-17T10:46:43.644Z,68.20
2018-10-17T10:49:16.777Z,68.60
2018-10-17T10:51:49.175Z,68.60
2018-10-17T10:54:18.278Z,68.40
2018-10-17T10:56:49.575Z,67.70
2018-10-17T10:59:19.167Z,67.40
2018-10-17T11:01:48.328Z,67.90
2018-10-17T11:04:18.680Z,68.00
2018-10-17T11:06:48.991Z,68.10
2018-10-17T11:09:19.435Z,67.90
2018-10-17T11:11:47.455Z,66.90
2018-10-17T11:14:16.793Z,66.90
2018-10-17T11:16:49.508Z,66.20
2018-10-17T11:19:24.469Z,66.20
2018-10-17T11:22:04.347Z,66.20
2018-10-17T11:24:34.707Z,65.90
2018-10-17T11:27:03.907Z,65.40
2018-10-17T11:29:32.560Z,65.20
2018-10-17T11:32:02.010Z,64.90
2018-10-17T11:34:36.887Z,65.10
2018-10-17T11:37:07.716Z,65.10
2018-10-17T11:39:41.184Z,64.80
2018-10-17T11:42:16.728Z,63.80
2018-10-17T11:44:49.866Z,62.50
2018-10-17T11:47:19.731Z,62.50
2018-10-17T11:49:50.267Z,62.50
2018-10-17T11:52:18.335Z,61.70
2018-10-17T11:54:53.842Z,60.90
2018-10-17T11:57:23.674Z,60.80
2018-10-17T11:59:56.334Z,60.90
2018-10-17T12:02:26.848Z,61.40
2018-10-17T12:05:00.166Z,62.00
2018-10-17T12:07:30.021Z,61.90
2018-10-17T12:10:01.220Z,61.30
2018-10-17T12:12:36.091Z,62.20
2018-10-17T12:15:09.594Z,60.70
2018-10-17T12:17:41.615Z,61.00
2018-10-17T12:20:13.273Z,61.30
2018-10-17T12:22:45.667Z,60.80
2018-10-17T12:25:22.847Z,59.90
2018-10-17T12:27:52.644Z,59.50
2018-10-17T12:30:31.304Z,59.50
2018-10-17T12:33:02.855Z,59.60
2018-10-17T12:35:32.662Z,59.70
2018-10-17T12:38:01.590Z,59.10
2018-10-17T12:40:38.184Z,59.50
2018-10-17T12:43:24.412Z,57.40
2018-10-17T12:45:53.691Z,57.50
2018-10-17T12:48:27.034Z,57.40
2018-10-17T12:51:03.516Z,57.20
2018-10-17T12:53:32.438Z,57.60
2018-10-17T12:56:04.541Z,57.10
2018-10-17T12:58:44.664Z,56.90
2018-10-17T13:01:18.759Z,55.70
2018-10-17T13:03:49.133Z,55.20
2018-10-17T13:06:18.679Z,56.10
2018-10-17T13:08:49.026Z,55.40
2018-10-17T13:11:19.801Z,54.00
2018-10-17T13:13:48.033Z,54.30
2018-10-17T13:16:18.884Z,53.10
2018-10-17T13:18:53.172Z,53.30
2018-10-17T13:21:24.133Z,53.20
2018-10-17T13:24:01.556Z,52.90
2018-10-17T13:26:32.977Z,53.20
2018-10-17T13:29:13.071Z,53.50
2018-10-17T13:31:49.711Z,53.00
2018-10-17T13:34:23.147Z,52.70
2018-10-17T13:36:56.478Z,52.90
2018-10-17T13:39:25.148Z,52.80
2018-10-17T13:42:00.007Z,52.60
2018-10-17T13:44:30.388Z,52.80
2018-10-17T13:47:04.638Z,52.60
2018-10-17T13:49:35.968Z,52.90
2018-10-17T13:52:20.373Z,52.80
2018-10-17T13:54:50.092Z,53.00
2018-10-17T13:57:25.387Z,52.60
2018-10-17T13:59:54.006Z,53.10
2018-10-17T14:02:24.137Z,52.80
2018-10-17T14:04:54.654Z,53.40
2018-10-17T14:07:24.394Z,53.40
2018-10-17T14:09:57.315Z,53.40
2018-10-17T14:12:35.251Z,52.40
2018-10-17T14:15:05.569Z,52.50
2018-10-17T14:17:43.151Z,52.00
2018-10-17T14:20:12.779Z,52.30
2018-10-17T14:25:20.666Z,51.10
2018-10-17T14:27:54.803Z,50.90
2018-10-17T14:30:25.877Z,50.80
2018-10-17T14:32:55.750Z,51.90
2018-10-17T14:35:27.514Z,50.80
2018-10-17T14:37:56.866Z,50.60
2018-10-17T14:40:25.802Z,50.80
2018-10-17T14:43:06.475Z,51.00
2018-10-17T14:45:38.663Z,51.30
2018-10-17T14:48:07.716Z,51.20
2018-10-17T14:50:37.817Z,52.50
2018-10-17T14:53:08.333Z,51.90
2018-10-17T14:55:39.937Z,52.20
2018-10-17T14:58:08.619Z,53.00
2018-10-17T15:00:42.212Z,51.60
2018-10-17T15:03:15.393Z,51.30
2018-10-17T15:05:49.939Z,51.00
2018-10-17T15:08:20.122Z,51.00
2018-10-17T15:10:49.292Z,52.70
2018-10-17T15:13:22.440Z,53.10
2018-10-17T15:15:54.354Z,52.10
2018-10-17T15:18:34.042Z,52.10
2018-10-17T15:21:05.077Z,52.30
2018-10-17T15:23:38.333Z,52.20
2018-10-17T15:26:08.024Z,52.40
2018-10-17T15:28:40.311Z,53.10
2018-10-17T15:31:11.314Z,53.70
2018-10-17T15:33:41.619Z,52.50
2018-10-17T15:36:14.165Z,52.70
2018-10-17T15:38:42.744Z,53.00
2018-10-17T15:41:17.000Z,53.90
2018-10-17T15:43:46.709Z,53.40
2018-10-17T15:46:17.044Z,53.40
2018-10-17T15:48:49.302Z,53.50
2018-10-17T15:51:20.931Z,54.30
2018-10-17T15:53:53.134Z,54.70
2018-10-17T15:56:27.554Z,55.20
2018-10-17T15:59:01.919Z,55.30
2018-10-17T16:01:35.148Z,55.80
2018-10-17T16:04:07.712Z,56.10
2018-10-17T16:06:39.168Z,56.70
2018-10-17T16:09:15.784Z,57.60
2018-10-17T16:11:48.542Z,58.40
2018-10-17T16:14:18.396Z,58.90
2018-10-17T16:16:46.770Z,59.00
2018-10-17T16:19:21.091Z,59.30
2018-10-17T16:21:50.912Z,59.80
2018-10-17T16:24:21.556Z,60.70
2018-10-17T16:26:54.846Z,61.00
2018-10-17T16:29:25.776Z,61.30
2018-10-17T16:31:59.593Z,61.30
2018-10-17T16:34:31.340Z,61.60
2018-10-17T16:36:59.869Z,62.00
2018-10-17T16:39:38.011Z,62.50
2018-10-17T16:42:08.481Z,62.60
2018-10-17T16:44:39.719Z,63.00
2018-10-17T16:47:10.253Z,63.50
2018-10-17T16:49:50.170Z,63.80
2018-10-17T16:52:20.480Z,64.30
2018-10-17T16:54:54.152Z,64.50
2018-10-17T16:57:25.405Z,65.00
2018-10-17T17:00:05.912Z,65.60
2018-10-17T17:02:37.865Z,65.50
2018-10-17T17:05:21.832Z,65.70
2018-10-17T17:08:03.520Z,66.00
2018-10-17T17:10:35.570Z,66.20
2018-10-17T17:13:05.148Z,66.40
2018-10-17T17:15:35.145Z,67.10
2018-10-17T17:18:04.896Z,66.30
2018-10-17T17:23:14.582Z,66.60
2018-10-17T17:25:44.177Z,66.80
2018-10-17T17:28:13.729Z,67.00
2018-10-17T17:30:45.264Z,67.20
2018-10-17T17:33:19.619Z,67.40
2018-10-17T17:35:57.777Z,67.50
2018-10-17T17:38:27.261Z,67.70
2018-10-17T17:41:07.598Z,67.80
2018-10-17T17:43:38.976Z,68.10
2018-10-17T17:46:08.396Z,68.10
2018-10-17T17:48:39.809Z,68.30
2018-10-17T17:51:25.162Z,68.40
2018-10-17T17:53:55.272Z,68.70
2018-10-17T17:56:25.273Z,69.10
2018-10-17T17:59:01.999Z,69.20
2018-10-17T18:01:31.834Z,69.80
2018-10-17T18:04:07.407Z,69.40
2018-10-17T18:06:37.090Z,69.60
2018-10-17T18:09:09.964Z,69.50
2018-10-17T18:11:41.367Z,69.70
2018-10-17T18:14:10.073Z,69.90
2018-10-17T18:16:39.452Z,69.90
2018-10-17T18:19:14.751Z,70.20
2018-10-17T18:21:47.846Z,70.10
2018-10-17T18:24:17.122Z,70.20
2018-10-17T18:26:45.303Z,70.30
2018-10-17T18:29:15.855Z,70.40
2018-10-17T18:31:45.501Z,70.50
2018-10-17T18:34:15.824Z,70.70
2018-10-17T18:36:48.319Z,70.70
2018-10-17T18:39:20.031Z,70.70
2018-10-17T18:41:55.127Z,71.10
2018-10-17T18:44:27.502Z,71.10
2018-10-17T18:47:00.183Z,71.20
2018-10-17T18:49:31.543Z,71.50
2018-10-17T18:52:02.328Z,71.60
2018-10-17T18:54:33.075Z,71.60
2018-10-17T18:57:02.122Z,71.90
2018-10-17T18:59:37.247Z,71.80
2018-10-17T19:02:06.539Z,72.00
2018-10-17T19:04:41.390Z,72.00
2018-10-17T19:07:10.639Z,72.80
2018-10-17T19:09:41.522Z,72.00
2018-10-17T19:12:26.728Z,72.30
2018-10-17T19:14:57.208Z,72.40
2018-10-17T19:17:28.314Z,72.40
2018-10-17T19:20:06.833Z,72.30
2018-10-17T19:22:37.127Z,72.30
2018-10-17T19:25:08.200Z,72.40
2018-10-17T19:27:39.452Z,72.60
2018-10-17T19:30:20.159Z,73.00
2018-10-17T19:32:48.431Z,73.30
2018-10-17T19:35:21.425Z,73.50
2018-10-17T19:37:50.395Z,73.20
2018-10-17T19:40:22.896Z,73.30
2018-10-17T19:42:55.569Z,73.30
2018-10-17T19:45:24.929Z,73.40
2018-10-17T19:47:54.033Z,73.80
2018-10-17T19:50:25.397Z,73.70
2018-10-17T19:52:56.670Z,73.70
2018-10-17T19:55:28.861Z,73.80
2018-10-17T19:58:02.762Z,73.90
2018-10-17T20:00:36.918Z,73.90
2018-10-17T20:03:07.137Z,73.80
2018-10-17T20:05:35.950Z,73.70
2018-10-17T20:08:05.469Z,73.70
2018-10-17T20:10:34.874Z,73.80
2018-10-17T20:13:04.284Z,73.80
2018-10-17T20:15:38.973Z,73.90
2018-10-17T20:18:09.920Z,73.80
2018-10-17T20:20:48.301Z,74.80
2018-10-17T20:23:18.755Z,73.90
2018-10-17T20:25:48.626Z,74.00
2018-10-17T20:28:19.278Z,73.90
2018-10-17T20:30:48.088Z,73.90
2018-10-17T20:33:18.522Z,73.90
2018-10-17T20:35:48.159Z,73.80
2018-10-17T20:38:18.213Z,74.10
2018-10-17T20:40:46.639Z,74.30
2018-10-17T20:43:24.706Z,74.00
2018-10-17T20:45:57.574Z,74.00
2018-10-17T20:48:25.375Z,74.80
2018-10-17T20:50:53.827Z,74.00
2018-10-17T20:53:21.539Z,74.20
2018-10-17T20:55:49.333Z,74.00
2018-10-17T20:58:25.670Z,74.20
2018-10-17T21:00:53.911Z,74.10
2018-10-17T21:03:21.507Z,73.90
2018-10-17T21:05:49.198Z,74.10
2018-10-17T21:08:16.945Z,74.00
2018-10-17T21:10:44.541Z,74.10
2018-10-17T21:13:12.234Z,74.20
2018-10-17T21:15:39.945Z,74.20
2018-10-17T21:18:07.711Z,74.50
2018-10-17T21:20:35.366Z,75.00
2018-10-17T21:23:03.137Z,74.40
2018-10-17T21:25:30.798Z,74.10
2018-10-17T21:27:58.374Z,73.90
2018-10-17T21:30:26.134Z,74.00
2018-10-17T21:32:53.802Z,74.00
2018-10-17T21:35:21.555Z,74.10
2018-10-17T21:37:49.361Z,74.40
2018-10-17T21:40:17.165Z,74.10
2018-10-17T21:42:45.392Z,74.10
2018-10-17T21:45:13.098Z,74.10
2018-10-17T21:47:40.848Z,74.30
2018-10-17T21:50:08.546Z,74.40
2018-10-17T21:52:36.171Z,74.40
2018-10-17T21:55:04.039Z,74.30
2018-10-17T21:57:32.393Z,74.10
2018-10-17T22:00:00.759Z,73.90
2018-10-17T22:02:28.534Z,74.00
2018-10-17T22:04:56.228Z,74.00
2018-10-17T22:07:23.894Z,74.10
2018-10-17T22:09:51.666Z,73.80
2018-10-17T22:12:19.401Z,73.80
2018-10-17T22:14:47.142Z,73.70
2018-10-17T22:17:14.814Z,74.10
2018-10-17T22:19:42.815Z,74.10
2018-10-17T22:22:10.451Z,74.40
2018-10-17T22:24:38.323Z,74.40
2018-10-17T22:27:06.166Z,74.30
2018-10-17T22:29:33.861Z,74.30
2018-10-17T22:32:01.672Z,74.40
2018-10-17T22:34:29.392Z,74.30
2018-10-17T22:36:57.034Z,74.30
2018-10-17T22:39:24.637Z,74.30
2018-10-17T22:41:52.308Z,74.50
2018-10-17T22:44:20.023Z,74.40
2018-10-17T22:46:47.783Z,74.30
2018-10-17T22:49:15.430Z,74.40
2018-10-17T22:51:43.145Z,74.20
2018-10-17T22:54:10.751Z,74.30
2018-10-17T22:56:39.046Z,74.40
2018-10-17T22:59:06.723Z,74.40
2018-10-17T23:01:34.693Z,74.20
2018-10-17T23:04:03.404Z,74.20
2018-10-17T23:06:31.209Z,74.40
2018-10-17T23:08:58.874Z,74.50
2018-10-17T23:11:26.535Z,74.60
2018-10-17T23:13:54.951Z,74.60
2018-10-17T23:16:22.539Z,74.60
2018-10-17T23:18:50.267Z,74.60
2018-10-17T23:21:17.827Z,74.80
2018-10-17T23:23:45.471Z,74.60
2018-10-17T23:26:13.201Z,74.30
2018-10-17T23:28:40.788Z,74.30
2018-10-17T23:31:08.459Z,74.30
2018-10-17T23:33:36.150Z,74.20
2018-10-17T23:36:03.984Z,74.40
2018-10-17T23:38:31.650Z,74.30
2018-10-17T23:40:59.279Z,74.40
2018-10-17T23:43:26.989Z,74.60
2018-10-17T23:45:54.620Z,74.60
2018-10-17T23:48:22.477Z,74.80
2018-10-17T23:50:50.162Z,75.00
2018-10-17T23:53:17.835Z,74.70
2018-10-17T23:55:49.887Z,74.80
2018-10-17T23:58:17.573Z,74.70
